createdAt,value
2022-11-05T00:00:44.091Z,1015.61
2022-11-05T00:01:44.695Z,1015.61
2022-11-05T00:02:45.287Z,1015.58
2022-11-05T00:03:45.950Z,1015.58
2022-11-05T00:04:46.531Z,1015.56
2022-11-05T00:05:47.126Z,1015.55
2022-11-05T00:06:47.674Z,1015.55
2022-11-05T00:07:48.226Z,1015.57
2022-11-05T00:08:48.800Z,1015.62
2022-11-05T00:09:49.396Z,1015.58
2022-11-05T00:10:50.108Z,1015.55
2022-11-05T00:11:50.668Z,1015.55
2022-11-05T00:12:51.219Z,1015.53
2022-11-05T00:13:51.780Z,1015.55
2022-11-05T00:14:52.335Z,1015.55
2022-11-05T00:15:52.973Z,1015.60
2022-11-05T00:16:53.530Z,1015.59
2022-11-05T00:17:54.076Z,1015.55
2022-11-05T00:18:54.644Z,1015.52
2022-11-05T00:19:55.195Z,1015.49
2022-11-05T00:20:55.810Z,1015.50
2022-11-05T00:21:56.371Z,1015.51
2022-11-05T00:22:56.921Z,1015.53
2022-11-05T00:23:57.478Z,1015.56
2022-11-05T00:24:58.052Z,1015.55
2022-11-05T00:25:58.723Z,1015.52
2022-11-05T00:26:59.279Z,1015.52
2022-11-05T00:27:59.843Z,1015.48
2022-11-05T00:29:00.403Z,1015.51
2022-11-05T00:30:00.967Z,1015.46
2022-11-05T00:31:01.560Z,1015.45
2022-11-05T00:32:02.124Z,1015.43
2022-11-05T00:33:02.673Z,1015.40
2022-11-05T00:34:03.233Z,1015.41
2022-11-05T00:35:03.788Z,1015.39
2022-11-05T00:36:04.368Z,1015.42
2022-11-05T00:37:04.919Z,1015.44
2022-11-05T00:38:05.483Z,1015.45
2022-11-05T00:39:06.030Z,1015.47
2022-11-05T00:40:06.614Z,1015.44
2022-11-05T00:41:07.315Z,1015.43
2022-11-05T00:42:07.877Z,1015.43
2022-11-05T00:43:08.821Z,1015.46
2022-11-05T00:44:09.158Z,1015.47
2022-11-05T00:45:09.734Z,1015.47
2022-11-05T00:46:10.347Z,1015.44
2022-11-05T00:47:10.901Z,1015.43
2022-11-05T00:48:11.445Z,1015.43
2022-11-05T00:49:11.999Z,1015.39
2022-11-05T00:50:12.558Z,1015.37
2022-11-05T00:51:13.189Z,1015.35
2022-11-05T00:52:13.741Z,1015.33
2022-11-05T00:53:14.523Z,1015.34
2022-11-05T00:54:15.147Z,1015.35
2022-11-05T00:55:15.719Z,1015.35
2022-11-05T00:56:16.428Z,1015.36
2022-11-05T00:57:16.979Z,1015.36
2022-11-05T00:58:17.536Z,1015.33
2022-11-05T00:59:18.081Z,1015.33
2022-11-05T01:00:18.638Z,1015.31
2022-11-05T01:01:19.466Z,1015.31
2022-11-05T01:02:20.342Z,1015.31
2022-11-05T01:03:20.963Z,1015.34
2022-11-05T01:04:21.516Z,1015.32
2022-11-05T01:05:22.071Z,1015.34
2022-11-05T01:06:22.655Z,1015.29
2022-11-05T01:07:23.205Z,1015.27
2022-11-05T01:08:23.751Z,1015.25
2022-11-05T01:09:24.322Z,1015.21
2022-11-05T01:10:24.909Z,1015.25
2022-11-05T01:11:25.542Z,1015.22
2022-11-05T01:12:26.085Z,1015.21
2022-11-05T01:13:26.645Z,1015.18
2022-11-05T01:14:27.202Z,1015.17
2022-11-05T01:15:27.766Z,1015.16
2022-11-05T01:16:28.435Z,1015.14
2022-11-05T01:17:28.980Z,1015.14
2022-11-05T01:18:29.530Z,1015.14
2022-11-05T01:19:30.084Z,1015.14
2022-11-05T01:20:30.640Z,1015.15
2022-11-05T01:21:31.268Z,1015.17
2022-11-05T01:22:31.827Z,1015.13
2022-11-05T01:23:32.383Z,1015.12
2022-11-05T01:24:32.946Z,1015.10
2022-11-05T01:25:33.517Z,1015.10
2022-11-05T01:26:34.211Z,1015.06
2022-11-05T01:27:34.759Z,1015.06
2022-11-05T01:28:35.396Z,1015.05
2022-11-05T01:29:35.999Z,1015.05
2022-11-05T01:30:36.544Z,1015.05
2022-11-05T01:31:37.120Z,1015.06
2022-11-05T01:32:37.683Z,1015.05
2022-11-05T01:33:38.238Z,1015.06
2022-11-05T01:34:38.793Z,1015.06
2022-11-05T01:35:39.348Z,1015.04
2022-11-05T01:36:39.925Z,1015.02
2022-11-05T01:37:40.515Z,1015.02
2022-11-05T01:38:41.063Z,1015.04
2022-11-05T01:39:41.606Z,1015.02
2022-11-05T01:40:42.190Z,1014.98
2022-11-05T01:41:42.774Z,1014.96
2022-11-05T01:42:43.332Z,1014.97
2022-11-05T01:43:43.893Z,1014.94
2022-11-05T01:44:44.444Z,1014.95
2022-11-05T01:45:44.997Z,1014.89
2022-11-05T01:46:45.658Z,1014.89
2022-11-05T01:47:46.215Z,1014.88
2022-11-05T01:48:46.765Z,1014.89
2022-11-05T01:49:47.314Z,1014.93
2022-11-05T01:50:47.896Z,1014.91
2022-11-05T01:51:48.525Z,1014.91
2022-11-05T01:52:49.083Z,1014.89
2022-11-05T01:53:49.628Z,1014.88
2022-11-05T01:54:50.186Z,1014.86
2022-11-05T01:55:50.767Z,1014.86
2022-11-05T01:56:51.461Z,1014.86
2022-11-05T01:57:52.043Z,1014.85
2022-11-05T01:58:52.593Z,1014.86
2022-11-05T01:59:53.154Z,1014.87
2022-11-05T02:00:53.699Z,1014.86
2022-11-05T02:01:54.487Z,1014.87
2022-11-05T02:02:55.333Z,1014.86
2022-11-05T02:03:55.985Z,1014.85
2022-11-05T02:04:56.558Z,1014.87
2022-11-05T02:05:57.108Z,1014.83
2022-11-05T02:06:57.689Z,1014.84
2022-11-05T02:07:58.239Z,1014.82
2022-11-05T02:08:58.796Z,1014.77
2022-11-05T02:09:59.349Z,1014.74
2022-11-05T02:10:59.919Z,1014.72
2022-11-05T02:12:00.583Z,1014.71
2022-11-05T02:13:01.132Z,1014.73
2022-11-05T02:14:01.682Z,1014.72
2022-11-05T02:15:02.276Z,1014.71
2022-11-05T02:16:02.832Z,1014.68
2022-11-05T02:17:03.520Z,1014.69
2022-11-05T02:18:04.077Z,1014.69
2022-11-05T02:19:04.632Z,1014.76
2022-11-05T02:20:05.201Z,1014.79
2022-11-05T02:21:05.748Z,1014.74
2022-11-05T02:22:06.363Z,1014.75
2022-11-05T02:23:06.916Z,1014.76
2022-11-05T02:24:07.469Z,1014.72
2022-11-05T02:25:08.011Z,1014.69
2022-11-05T02:26:08.581Z,1014.68
2022-11-05T02:27:09.241Z,1014.70
2022-11-05T02:28:09.793Z,1014.69
2022-11-05T02:29:10.367Z,1014.70
2022-11-05T02:30:10.915Z,1014.70
2022-11-05T02:31:11.469Z,1014.70
2022-11-05T02:32:12.057Z,1014.70
2022-11-05T02:33:12.894Z,1014.69
2022-11-05T02:34:13.143Z,1014.70
2022-11-05T02:35:13.697Z,1014.70
2022-11-05T02:36:14.254Z,1014.72
2022-11-05T02:37:14.855Z,1014.70
2022-11-05T02:38:15.405Z,1014.70
2022-11-05T02:39:15.970Z,1014.72
2022-11-05T02:40:16.524Z,1014.72
2022-11-05T02:41:17.160Z,1014.70
2022-11-05T02:42:17.856Z,1014.67
2022-11-05T02:43:18.411Z,1014.71
2022-11-05T02:44:18.965Z,1014.70
2022-11-05T02:45:19.520Z,1014.71
2022-11-05T02:46:20.065Z,1014.67
2022-11-05T02:47:20.651Z,1014.66
2022-11-05T02:48:21.215Z,1014.62
2022-11-05T02:49:21.766Z,1014.63
2022-11-05T02:50:22.319Z,1014.64
2022-11-05T02:51:22.869Z,1014.66
2022-11-05T02:52:23.474Z,1014.68
2022-11-05T02:53:24.047Z,1014.67
2022-11-05T02:54:24.603Z,1014.69
2022-11-05T02:55:25.152Z,1014.68
2022-11-05T02:56:25.725Z,1014.68
2022-11-05T02:57:26.434Z,1014.68
2022-11-05T02:58:26.995Z,1014.72
2022-11-05T02:59:27.545Z,1014.73
2022-11-05T03:00:28.092Z,1014.70
2022-11-05T03:01:28.809Z,1014.71
2022-11-05T03:02:29.607Z,1014.68
2022-11-05T03:03:30.205Z,1014.70
2022-11-05T03:04:30.794Z,1014.71
2022-11-05T03:05:31.346Z,1014.74
2022-11-05T03:06:31.894Z,1014.73
2022-11-05T03:07:32.686Z,1014.72
2022-11-05T03:08:33.233Z,1014.73
2022-11-05T03:09:33.788Z,1014.68
2022-11-05T03:10:34.407Z,1014.72
2022-11-05T03:11:34.987Z,1014.71
2022-11-05T03:12:35.628Z,1014.73
2022-11-05T03:13:36.188Z,1014.73
2022-11-05T03:14:36.739Z,1014.76
2022-11-05T03:15:37.292Z,1014.75
2022-11-05T03:16:37.836Z,1014.78
2022-11-05T03:17:38.504Z,1014.85
2022-11-05T03:18:39.046Z,1014.84
2022-11-05T03:19:39.602Z,1014.86
2022-11-05T03:20:40.166Z,1014.87
2022-11-05T03:21:40.711Z,1014.89
2022-11-05T03:22:41.323Z,1014.84
2022-11-05T03:23:41.872Z,1014.83
2022-11-05T03:24:42.426Z,1014.85
2022-11-05T03:25:42.977Z,1014.84
2022-11-05T03:26:43.553Z,1014.84
2022-11-05T03:27:44.222Z,1014.83
2022-11-05T03:28:44.773Z,1014.81
2022-11-05T03:29:45.327Z,1014.84
2022-11-05T03:30:45.905Z,1014.87
2022-11-05T03:31:46.462Z,1014.85
2022-11-05T03:32:47.046Z,1014.82
2022-11-05T03:33:47.598Z,1014.81
2022-11-05T03:34:48.147Z,1014.80
2022-11-05T03:35:48.701Z,1014.82
2022-11-05T03:36:49.242Z,1014.80
2022-11-05T03:37:49.831Z,1014.81
2022-11-05T03:38:50.389Z,1014.85
2022-11-05T03:39:50.943Z,1014.82
2022-11-05T03:40:51.492Z,1014.80
2022-11-05T03:41:52.061Z,1014.79
2022-11-05T03:42:52.694Z,1014.81
2022-11-05T03:43:53.262Z,1014.88
2022-11-05T03:44:53.810Z,1014.83
2022-11-05T03:45:54.370Z,1014.84
2022-11-05T03:46:54.916Z,1014.85
2022-11-05T03:47:55.496Z,1014.86
2022-11-05T03:48:56.116Z,1014.95
2022-11-05T03:49:56.686Z,1014.88
2022-11-05T03:50:57.243Z,1014.91
2022-11-05T03:51:57.799Z,1014.93
2022-11-05T03:52:58.422Z,1014.95
2022-11-05T03:53:58.966Z,1014.93
2022-11-05T03:54:59.521Z,1014.96
2022-11-05T03:56:00.095Z,1014.98
2022-11-05T03:57:00.695Z,1014.96
2022-11-05T03:58:01.387Z,1014.94
2022-11-05T03:59:01.945Z,1014.97
2022-11-05T04:00:02.499Z,1014.94
2022-11-05T04:01:03.055Z,1014.95
2022-11-05T04:02:03.739Z,1014.97
2022-11-05T04:03:04.551Z,1014.93
2022-11-05T04:04:05.163Z,1014.92
2022-11-05T04:05:05.714Z,1014.92
2022-11-05T04:06:06.260Z,1014.93
2022-11-05T04:07:06.822Z,1014.97
2022-11-05T04:08:12.944Z,1014.96
2022-11-05T04:09:08.306Z,1014.98
2022-11-05T04:10:08.863Z,1015.00
2022-11-05T04:11:09.419Z,1015.02
2022-11-05T04:12:09.999Z,1015.01
2022-11-05T04:13:10.927Z,1015.01
2022-11-05T04:14:11.268Z,1015.00
2022-11-05T04:15:11.817Z,1015.01
2022-11-05T04:16:12.368Z,1015.03
2022-11-05T04:17:12.913Z,1015.03
2022-11-05T04:18:13.503Z,1015.04
2022-11-05T04:19:14.056Z,1015.04
2022-11-05T04:20:14.616Z,1015.06
2022-11-05T04:21:15.141Z,1015.08
2022-11-05T04:22:15.708Z,1015.04
2022-11-05T04:23:16.426Z,1015.07
2022-11-05T04:24:16.972Z,1015.03
2022-11-05T04:25:17.536Z,1015.02
2022-11-05T04:26:18.098Z,1015.03
2022-11-05T04:27:18.630Z,1015.02
2022-11-05T04:28:19.280Z,1015.01
2022-11-05T04:29:19.773Z,1015.00
2022-11-05T04:30:20.446Z,1015.00
2022-11-05T04:31:21.041Z,1014.99
2022-11-05T04:32:22.040Z,1014.99
2022-11-05T04:33:22.582Z,1014.97
2022-11-05T04:34:23.068Z,1014.94
2022-11-05T04:35:24.069Z,1014.93
2022-11-05T04:36:24.566Z,1014.92
2022-11-05T04:37:25.059Z,1014.92
2022-11-05T04:38:25.589Z,1014.92
2022-11-05T04:39:26.087Z,1014.92
2022-11-05T04:40:27.086Z,1014.91
2022-11-05T04:41:27.582Z,1014.91
2022-11-05T04:42:28.597Z,1014.90
2022-11-05T04:43:29.207Z,1014.88
2022-11-05T04:44:29.707Z,1014.88
2022-11-05T04:45:30.202Z,1014.86
2022-11-05T04:46:30.706Z,1014.88
2022-11-05T04:47:31.198Z,1014.86
2022-11-05T04:48:32.260Z,1014.85
2022-11-05T04:49:32.749Z,1014.86
2022-11-05T04:50:33.741Z,1014.84
2022-11-05T04:51:34.259Z,1014.81
2022-11-05T04:52:34.758Z,1014.79
2022-11-05T04:53:35.324Z,1014.77
2022-11-05T04:54:35.825Z,1014.78
2022-11-05T04:55:36.322Z,1014.77
2022-11-05T04:56:36.822Z,1014.78
2022-11-05T04:57:37.338Z,1014.79
2022-11-05T04:58:37.981Z,1014.79
2022-11-05T04:59:38.476Z,1014.78
2022-11-05T05:00:39.057Z,1014.78
2022-11-05T05:01:39.834Z,1014.81
2022-11-05T05:02:40.481Z,1014.80
2022-11-05T05:03:40.999Z,1014.83
2022-11-05T05:04:41.498Z,1014.85
2022-11-05T05:05:41.995Z,1014.85
2022-11-05T05:06:42.497Z,1014.86
2022-11-05T05:07:42.995Z,1014.85
2022-11-05T05:08:43.513Z,1014.86
2022-11-05T05:09:44.012Z,1014.88
2022-11-05T05:10:44.512Z,1014.88
2022-11-05T05:11:45.001Z,1014.91
2022-11-05T05:12:45.529Z,1014.93
2022-11-05T05:13:46.138Z,1014.91
2022-11-05T05:14:46.636Z,1014.94
2022-11-05T05:15:47.139Z,1014.92
2022-11-05T05:16:47.636Z,1014.92
2022-11-05T05:17:48.629Z,1014.92
2022-11-05T05:18:49.150Z,1014.92
2022-11-05T05:19:49.649Z,1014.93
2022-11-05T05:20:50.150Z,1014.94
2022-11-05T05:21:50.660Z,1014.93
2022-11-05T05:22:51.157Z,1014.93
2022-11-05T05:23:51.900Z,1014.93
2022-11-05T05:24:53.075Z,1014.96
2022-11-05T05:25:53.222Z,1014.98
2022-11-05T05:26:53.730Z,1015.01
2022-11-05T05:27:54.251Z,1015.03
2022-11-05T05:28:54.888Z,1015.02
2022-11-05T05:29:55.397Z,1015.04
2022-11-05T05:30:58.672Z,1015.07
2022-11-05T05:31:56.867Z,1015.09
2022-11-05T05:32:57.866Z,1015.09
2022-11-05T05:33:58.398Z,1015.12
2022-11-05T05:34:58.899Z,1015.15
2022-11-05T05:35:59.403Z,1015.14
2022-11-05T05:36:59.910Z,1015.13
2022-11-05T05:38:00.410Z,1015.17
2022-11-05T05:39:00.934Z,1015.17
2022-11-05T05:40:01.429Z,1015.19
2022-11-05T05:41:01.919Z,1015.18
2022-11-05T05:42:02.425Z,1015.18
2022-11-05T05:43:02.944Z,1015.18
2022-11-05T05:44:03.472Z,1015.17
2022-11-05T05:45:03.971Z,1015.15
2022-11-05T05:46:04.461Z,1015.15
2022-11-05T05:47:04.957Z,1015.15
2022-11-05T05:48:05.459Z,1015.15
2022-11-05T05:49:12.046Z,1015.14
2022-11-05T05:50:06.844Z,1015.13
2022-11-05T05:51:07.336Z,1015.14
2022-11-05T05:52:07.836Z,1015.12
2022-11-05T05:53:08.626Z,1015.12
2022-11-05T05:54:09.393Z,1015.12
2022-11-05T05:55:09.907Z,1015.12
2022-11-05T05:56:10.403Z,1015.13
2022-11-05T05:57:10.906Z,1015.16
2022-11-05T05:58:11.439Z,1015.16
2022-11-05T05:59:12.083Z,1015.18
2022-11-05T06:00:12.585Z,1015.19
2022-11-05T06:01:18.552Z,1015.18
2022-11-05T06:02:14.040Z,1015.19
2022-11-05T06:03:14.843Z,1015.19
2022-11-05T06:04:15.608Z,1015.19
2022-11-05T06:05:16.105Z,1015.18
2022-11-05T06:06:16.604Z,1015.17
2022-11-05T06:07:17.595Z,1015.16
2022-11-05T06:08:18.102Z,1015.14
2022-11-05T06:09:18.643Z,1015.11
2022-11-05T06:10:19.208Z,1015.10
2022-11-05T06:11:19.718Z,1015.09
2022-11-05T06:12:20.215Z,1015.11
2022-11-05T06:13:20.731Z,1015.09
2022-11-05T06:14:21.309Z,1015.10
2022-11-05T06:15:21.807Z,1015.11
2022-11-05T06:16:22.306Z,1015.10
2022-11-05T06:17:23.300Z,1015.09
2022-11-05T06:18:23.795Z,1015.08
2022-11-05T06:19:24.354Z,1015.06
2022-11-05T06:20:24.844Z,1015.04
2022-11-05T06:21:25.863Z,1015.03
2022-11-05T06:22:26.355Z,1015.03
2022-11-05T06:23:26.850Z,1015.04
2022-11-05T06:24:27.398Z,1015.05
2022-11-05T06:25:27.887Z,1015.05
2022-11-05T06:26:28.383Z,1015.05
2022-11-05T06:27:28.876Z,1015.04
2022-11-05T06:28:29.895Z,1015.04
2022-11-05T06:29:30.490Z,1015.04
2022-11-05T06:30:31.000Z,1015.04
2022-11-05T06:31:31.497Z,1015.05
2022-11-05T06:32:32.055Z,1015.04
2022-11-05T06:33:32.573Z,1015.03
2022-11-05T06:34:33.094Z,1015.03
2022-11-05T06:35:33.579Z,1015.02
2022-11-05T06:36:34.575Z,1015.01
2022-11-05T06:37:35.067Z,1014.99
2022-11-05T06:38:35.570Z,1014.96
2022-11-05T06:39:36.211Z,1014.94
2022-11-05T06:40:36.712Z,1014.93
2022-11-05T06:41:56.855Z,1014.92
2022-11-05T06:42:38.083Z,1014.90
2022-11-05T06:43:38.603Z,1014.89
2022-11-05T06:44:39.207Z,1014.88
2022-11-05T06:45:39.709Z,1014.87
2022-11-05T06:46:43.305Z,1014.86
2022-11-05T06:47:41.051Z,1014.86
2022-11-05T06:48:42.042Z,1014.85
2022-11-05T06:49:43.099Z,1014.84
2022-11-05T06:50:43.596Z,1014.84
2022-11-05T06:51:44.224Z,1014.84
2022-11-05T06:52:44.736Z,1014.86
2022-11-05T06:53:45.246Z,1014.88
2022-11-05T06:54:45.838Z,1014.88
2022-11-05T06:55:46.345Z,1014.89
2022-11-05T06:56:46.840Z,1014.89
2022-11-05T06:57:47.370Z,1014.89
2022-11-05T06:58:47.888Z,1014.90
2022-11-05T06:59:48.544Z,1014.91
2022-11-05T07:00:49.095Z,1014.92
2022-11-05T07:01:49.703Z,1014.93
2022-11-05T07:02:50.252Z,1014.96
2022-11-05T07:03:51.246Z,1015.00
2022-11-05T07:04:51.778Z,1015.02
2022-11-05T07:05:52.275Z,1015.05
2022-11-05T07:06:52.767Z,1015.05
2022-11-05T07:07:53.288Z,1015.07
2022-11-05T07:08:54.293Z,1015.07
2022-11-05T07:09:54.824Z,1015.09
2022-11-05T07:10:55.318Z,1015.08
2022-11-05T07:11:55.820Z,1015.09
2022-11-05T07:12:56.315Z,1015.08
2022-11-05T07:13:56.845Z,1015.08
2022-11-05T07:14:57.438Z,1015.08
2022-11-05T07:15:57.937Z,1015.08
2022-11-05T07:16:58.429Z,1015.08
2022-11-05T07:17:58.937Z,1015.08
2022-11-05T07:18:59.434Z,1015.09
2022-11-05T07:19:59.979Z,1015.10
2022-11-05T07:21:00.495Z,1015.09
2022-11-05T07:22:00.986Z,1015.08
2022-11-05T07:23:01.511Z,1015.07
2022-11-05T07:24:02.014Z,1015.06
2022-11-05T07:25:02.574Z,1015.05
2022-11-05T07:26:03.092Z,1015.04
2022-11-05T07:27:03.600Z,1015.04
2022-11-05T07:28:04.102Z,1015.05
2022-11-05T07:29:04.662Z,1015.06
2022-11-05T07:30:05.266Z,1015.09
2022-11-05T07:31:05.772Z,1015.11
2022-11-05T07:32:06.268Z,1015.12
2022-11-05T07:33:07.286Z,1015.13
2022-11-05T07:34:07.791Z,1015.14
2022-11-05T07:35:08.324Z,1015.14
2022-11-05T07:36:08.813Z,1015.14
2022-11-05T07:37:09.822Z,1015.15
2022-11-05T07:38:10.315Z,1015.16
2022-11-05T07:39:10.816Z,1015.16
2022-11-05T07:40:11.342Z,1015.16
2022-11-05T07:41:11.831Z,1015.17
2022-11-05T07:42:12.353Z,1015.16
2022-11-05T07:43:13.321Z,1015.17
2022-11-05T07:44:13.606Z,1015.17
2022-11-05T07:45:14.140Z,1015.17
2022-11-05T07:46:14.638Z,1015.17
2022-11-05T07:47:15.134Z,1015.17
2022-11-05T07:48:15.626Z,1015.16
2022-11-05T07:49:16.622Z,1015.17
2022-11-05T07:50:17.200Z,1015.18
2022-11-05T07:51:17.721Z,1015.20
2022-11-05T07:52:18.241Z,1015.21
2022-11-05T07:53:18.759Z,1015.23
2022-11-05T07:54:19.253Z,1015.23
2022-11-05T07:55:19.925Z,1015.24
2022-11-05T07:56:20.418Z,1015.24
2022-11-05T07:57:20.910Z,1015.24
2022-11-05T07:58:21.411Z,1015.24
2022-11-05T07:59:21.937Z,1015.24
2022-11-05T08:00:22.548Z,1015.24
2022-11-05T08:01:23.191Z,1015.25
2022-11-05T08:02:24.041Z,1015.26
2022-11-05T08:03:24.835Z,1015.27
2022-11-05T08:04:25.420Z,1015.28
2022-11-05T08:05:25.950Z,1015.28
2022-11-05T08:06:26.449Z,1015.29
2022-11-05T08:07:26.943Z,1015.30
2022-11-05T08:08:27.440Z,1015.31
2022-11-05T08:09:27.944Z,1015.31
2022-11-05T08:10:28.542Z,1015.32
2022-11-05T08:11:29.038Z,1015.31
2022-11-05T08:12:29.542Z,1015.30
2022-11-05T08:13:30.041Z,1015.30
2022-11-05T08:14:30.581Z,1015.30
2022-11-05T08:15:31.156Z,1015.30
2022-11-05T08:16:31.650Z,1015.31
2022-11-05T08:17:32.146Z,1015.31
2022-11-05T08:18:32.650Z,1015.30
2022-11-05T08:19:33.156Z,1015.29
2022-11-05T08:20:33.679Z,1015.28
2022-11-05T08:21:34.180Z,1015.28
2022-11-05T08:22:34.780Z,1015.29
2022-11-05T08:23:35.284Z,1015.28
2022-11-05T08:24:35.786Z,1015.28
2022-11-05T08:25:36.355Z,1015.28
2022-11-05T08:26:36.862Z,1015.28
2022-11-05T08:27:37.358Z,1015.28
2022-11-05T08:28:37.860Z,1015.27
2022-11-05T08:29:38.477Z,1015.25
2022-11-05T08:30:39.121Z,1015.24
2022-11-05T08:31:39.619Z,1015.21
2022-11-05T08:32:40.111Z,1015.20
2022-11-05T08:33:40.606Z,1015.18
2022-11-05T08:34:41.103Z,1015.16
2022-11-05T08:35:42.146Z,1015.16
2022-11-05T08:36:42.638Z,1015.16
2022-11-05T08:37:43.638Z,1015.17
2022-11-05T08:38:44.141Z,1015.17
2022-11-05T08:39:44.644Z,1015.16
2022-11-05T08:40:45.162Z,1015.13
2022-11-05T08:41:45.672Z,1015.13
2022-11-05T08:42:46.166Z,1015.11
2022-11-05T08:43:46.675Z,1015.09
2022-11-05T08:44:47.202Z,1015.09
2022-11-05T08:45:47.732Z,1015.09
2022-11-05T08:46:48.243Z,1015.08
2022-11-05T08:47:48.761Z,1015.07
2022-11-05T08:48:49.270Z,1015.07
2022-11-05T08:49:49.763Z,1015.07
2022-11-05T08:50:50.353Z,1015.07
2022-11-05T08:51:50.841Z,1015.06
2022-11-05T08:52:51.404Z,1015.04
2022-11-05T08:53:51.905Z,1015.03
2022-11-05T08:54:52.410Z,1015.04
2022-11-05T08:55:52.955Z,1015.04
2022-11-05T08:56:53.451Z,1015.03
2022-11-05T08:57:53.960Z,1015.03
2022-11-05T08:58:54.455Z,1015.03
2022-11-05T08:59:54.973Z,1015.01
2022-11-05T09:00:59.029Z,1014.98
2022-11-05T09:01:56.528Z,1014.96
2022-11-05T09:02:57.092Z,1014.94
2022-11-05T09:03:57.583Z,1014.93
2022-11-05T09:04:58.090Z,1014.92
2022-11-05T09:05:58.790Z,1014.91
2022-11-05T09:06:59.289Z,1014.91
2022-11-05T09:08:01.576Z,1014.91
2022-11-05T09:09:00.779Z,1014.91
2022-11-05T09:10:01.283Z,1014.91
2022-11-05T09:11:01.814Z,1014.90
2022-11-05T09:12:17.669Z,1014.90
2022-11-05T09:13:03.170Z,1014.89
2022-11-05T09:14:03.681Z,1014.88
2022-11-05T09:15:04.290Z,1014.88
2022-11-05T09:16:04.865Z,1014.88
2022-11-05T09:17:05.357Z,1014.87
2022-11-05T09:18:05.852Z,1014.87
2022-11-05T09:19:06.351Z,1014.87
2022-11-05T09:20:07.344Z,1014.87
2022-11-05T09:21:07.873Z,1014.86
2022-11-05T09:22:08.370Z,1014.86
2022-11-05T09:23:09.219Z,1014.85
2022-11-05T09:24:09.451Z,1014.87
2022-11-05T09:25:09.981Z,1014.89
2022-11-05T09:26:10.545Z,1014.91
2022-11-05T09:27:11.033Z,1014.91
2022-11-05T09:28:16.116Z,1014.90
2022-11-05T09:29:14.533Z,1014.88
2022-11-05T09:30:13.884Z,1014.87
2022-11-05T09:31:14.559Z,1014.87
2022-11-05T09:32:15.051Z,1014.88
2022-11-05T09:33:16.051Z,1014.88
2022-11-05T09:34:16.571Z,1014.87
2022-11-05T09:35:17.084Z,1014.84
2022-11-05T09:36:17.611Z,1014.82
2022-11-05T09:37:18.104Z,1014.81
2022-11-05T09:38:19.104Z,1014.80
2022-11-05T09:39:19.599Z,1014.78
2022-11-05T09:40:20.107Z,1014.78
2022-11-05T09:41:20.731Z,1014.78
2022-11-05T09:42:21.270Z,1014.78
2022-11-05T09:43:23.249Z,1014.76
2022-11-05T09:44:22.487Z,1014.75
2022-11-05T09:45:23.023Z,1014.73
2022-11-05T09:46:23.689Z,1014.71
2022-11-05T09:47:24.216Z,1014.70
2022-11-05T09:48:24.737Z,1014.69
2022-11-05T09:49:25.267Z,1014.68
2022-11-05T09:50:25.766Z,1014.66
2022-11-05T09:51:26.356Z,1014.63
2022-11-05T09:52:26.862Z,1014.61
2022-11-05T09:53:27.371Z,1014.60
2022-11-05T09:54:27.869Z,1014.59
2022-11-05T09:55:28.387Z,1014.57
2022-11-05T09:56:28.947Z,1014.55
2022-11-05T09:57:29.451Z,1014.55
2022-11-05T09:58:30.195Z,1014.54
2022-11-05T09:59:30.701Z,1014.52
2022-11-05T10:00:31.242Z,1014.50
2022-11-05T10:01:32.061Z,1014.50
2022-11-05T10:02:32.857Z,1014.50
2022-11-05T10:03:33.464Z,1014.49
2022-11-05T10:04:33.957Z,1014.49
2022-11-05T10:05:35.043Z,1014.49
2022-11-05T10:06:35.836Z,1014.46
2022-11-05T10:07:36.342Z,1014.42
2022-11-05T10:08:36.837Z,1014.39
2022-11-05T10:09:37.840Z,1014.37
2022-11-05T10:10:41.037Z,1014.35
2022-11-05T10:11:38.980Z,1014.35
2022-11-05T10:12:39.480Z,1014.36
2022-11-05T10:13:40.480Z,1014.38
2022-11-05T10:14:40.983Z,1014.39
2022-11-05T10:15:41.523Z,1014.40
2022-11-05T10:16:42.121Z,1014.42
2022-11-05T10:17:42.631Z,1014.43
2022-11-05T10:18:43.626Z,1014.43
2022-11-05T10:19:44.136Z,1014.43
2022-11-05T10:20:44.632Z,1014.42
2022-11-05T10:22:05.710Z,1014.42
2022-11-05T10:22:49.481Z,1014.42
2022-11-05T10:23:46.356Z,1014.41
2022-11-05T10:24:46.853Z,1014.40
2022-11-05T10:25:47.370Z,1014.38
2022-11-05T10:26:47.963Z,1014.36
2022-11-05T10:27:48.466Z,1014.34
2022-11-05T10:28:48.970Z,1014.32
2022-11-05T10:29:49.473Z,1014.31
2022-11-05T10:30:50.037Z,1014.28
2022-11-05T10:31:50.719Z,1014.28
2022-11-05T10:32:51.212Z,1014.28
2022-11-05T10:33:51.712Z,1014.27
2022-11-05T10:34:52.706Z,1014.26
2022-11-05T10:35:53.702Z,1014.25
2022-11-05T10:36:54.311Z,1014.24
2022-11-05T10:37:54.847Z,1014.23
2022-11-05T10:38:55.363Z,1014.23
2022-11-05T10:39:55.884Z,1014.22
2022-11-05T10:40:56.400Z,1014.21
2022-11-05T10:41:56.985Z,1014.19
2022-11-05T10:42:57.496Z,1014.18
2022-11-05T10:43:57.990Z,1014.17
2022-11-05T10:44:58.487Z,1014.16
2022-11-05T10:45:59.026Z,1014.15
2022-11-05T10:46:59.549Z,1014.15
2022-11-05T10:48:00.043Z,1014.14
2022-11-05T10:49:00.558Z,1014.14
2022-11-05T10:50:01.553Z,1014.13
2022-11-05T10:51:02.057Z,1014.14
2022-11-05T10:52:02.642Z,1014.15
2022-11-05T10:53:03.134Z,1014.16
2022-11-05T10:54:03.645Z,1014.17
2022-11-05T10:55:04.146Z,1014.19
2022-11-05T10:56:04.648Z,1014.20
2022-11-05T10:57:05.212Z,1014.19
2022-11-05T10:58:05.714Z,1014.16
2022-11-05T10:59:11.845Z,1014.14
2022-11-05T11:00:07.086Z,1014.12
2022-11-05T11:01:07.780Z,1014.12
2022-11-05T11:02:08.585Z,1014.12
2022-11-05T11:03:09.520Z,1014.13
2022-11-05T11:04:09.779Z,1014.13
2022-11-05T11:05:10.293Z,1014.14
2022-11-05T11:06:10.797Z,1014.14
2022-11-05T11:07:11.460Z,1014.13
2022-11-05T11:08:11.974Z,1014.13
2022-11-05T11:09:12.491Z,1014.12
2022-11-05T11:10:13.020Z,1014.12
2022-11-05T11:11:13.514Z,1014.12
2022-11-05T11:12:14.044Z,1014.12
2022-11-05T11:13:14.549Z,1014.11
2022-11-05T11:14:15.051Z,1014.09
2022-11-05T11:15:15.548Z,1014.09
2022-11-05T11:16:16.103Z,1014.07
2022-11-05T11:17:16.680Z,1014.06
2022-11-05T11:18:17.170Z,1014.04
2022-11-05T11:19:17.672Z,1014.02
2022-11-05T11:20:18.248Z,1013.98
2022-11-05T11:21:18.815Z,1013.97
2022-11-05T11:22:19.365Z,1013.96
2022-11-05T11:23:19.867Z,1013.94
2022-11-05T11:24:20.887Z,1013.92
2022-11-05T11:25:21.389Z,1013.91
2022-11-05T11:26:21.895Z,1013.91
2022-11-05T11:27:22.952Z,1013.93
2022-11-05T11:28:23.453Z,1013.94
2022-11-05T11:29:23.947Z,1013.96
2022-11-05T11:30:24.944Z,1013.99
2022-11-05T11:31:25.486Z,1014.00
2022-11-05T11:32:26.036Z,1014.00
2022-11-05T11:33:26.549Z,1013.99
2022-11-05T11:34:27.049Z,1014.00
2022-11-05T11:35:27.548Z,1013.98
2022-11-05T11:36:28.052Z,1013.96
2022-11-05T11:37:28.581Z,1013.93
2022-11-05T11:38:29.087Z,1013.90
2022-11-05T11:39:29.583Z,1013.88
2022-11-05T11:40:30.577Z,1013.87
2022-11-05T11:41:31.076Z,1013.86
2022-11-05T11:42:31.606Z,1013.86
2022-11-05T11:43:32.119Z,1013.86
2022-11-05T11:44:32.621Z,1013.86
2022-11-05T11:45:33.124Z,1013.87
2022-11-05T11:46:34.141Z,1013.84
2022-11-05T11:47:34.679Z,1013.82
2022-11-05T11:48:35.166Z,1013.80
2022-11-05T11:49:36.166Z,1013.78
2022-11-05T11:50:36.664Z,1013.78
2022-11-05T11:51:37.167Z,1013.78
2022-11-05T11:52:37.756Z,1013.77
2022-11-05T11:53:38.258Z,1013.74
2022-11-05T11:54:38.776Z,1013.70
2022-11-05T11:55:39.277Z,1013.67
2022-11-05T11:56:39.783Z,1013.66
2022-11-05T11:57:40.375Z,1013.65
2022-11-05T11:58:40.879Z,1013.63
2022-11-05T12:00:07.107Z,1013.62
2022-11-05T12:00:42.237Z,1013.62
2022-11-05T12:01:42.835Z,1013.61
2022-11-05T12:02:43.560Z,1013.59
2022-11-05T12:03:44.110Z,1013.56
2022-11-05T12:04:44.617Z,1013.54
2022-11-05T12:05:45.119Z,1013.54
2022-11-05T12:06:45.685Z,1013.56
2022-11-05T12:07:46.221Z,1013.55
2022-11-05T12:08:49.489Z,1013.52
2022-11-05T12:09:47.583Z,1013.51
2022-11-05T12:10:48.080Z,1013.49
2022-11-05T12:11:48.584Z,1013.48
2022-11-05T12:12:49.238Z,1013.46